createdAt,value
2023-05-12T00:01:51.522Z,100.00
2023-05-12T00:04:20.989Z,100.00
2023-05-12T00:06:48.582Z,100.00
2023-05-12T00:09:15.504Z,100.00
2023-05-12T00:11:42.578Z,100.00
2023-05-12T00:14:09.657Z,100.00
2023-05-12T00:16:36.736Z,100.00
2023-05-12T00:19:04.087Z,100.00
2023-05-12T00:21:31.294Z,100.00
2023-05-12T00:23:58.126Z,100.00
2023-05-12T00:26:25.345Z,100.00
2023-05-12T00:28:52.591Z,100.00
2023-05-12T00:31:19.528Z,100.00
2023-05-12T00:33:46.649Z,100.00
2023-05-12T00:36:13.581Z,100.00
2023-05-12T00:38:41.833Z,100.00
2023-05-12T00:41:08.836Z,100.00
2023-05-12T00:43:35.984Z,100.00
2023-05-12T00:46:06.478Z,100.00
2023-05-12T00:48:34.763Z,100.00
2023-05-12T00:51:03.441Z,100.00
2023-05-12T00:53:41.361Z,100.00
2023-05-12T00:56:17.357Z,100.00
2023-05-12T00:58:44.407Z,100.00
2023-05-12T01:01:11.390Z,100.00
2023-05-12T01:03:38.521Z,100.00
2023-05-12T01:06:24.387Z,100.00
2023-05-12T01:08:51.791Z,100.00
2023-05-12T01:11:19.177Z,100.00
2023-05-12T01:13:46.207Z,100.00
2023-05-12T01:16:16.723Z,100.00
2023-05-12T01:18:50.439Z,100.00
2023-05-12T01:21:22.038Z,100.00
2023-05-12T01:24:09.522Z,100.00
2023-05-12T01:26:37.217Z,100.00
2023-05-12T01:29:05.392Z,100.00
2023-05-12T01:31:33.507Z,100.00
2023-05-12T01:36:43.029Z,100.00
2023-05-12T01:39:09.948Z,100.00
2023-05-12T01:41:36.734Z,100.00
2023-05-12T01:44:03.513Z,100.00
2023-05-12T01:46:31.028Z,100.00
2023-05-12T01:48:57.868Z,100.00
2023-05-12T01:51:24.879Z,100.00
2023-05-12T01:53:51.914Z,100.00
2023-05-12T01:56:21.325Z,100.00
2023-05-12T01:58:51.213Z,100.00
2023-05-12T02:01:21.940Z,100.00
2023-05-12T02:03:49.840Z,100.00
2023-05-12T02:06:18.799Z,100.00
2023-05-12T02:08:46.708Z,100.00
2023-05-12T02:11:13.967Z,100.00
2023-05-12T02:13:40.849Z,100.00
2023-05-12T02:16:08.096Z,100.00
2023-05-12T02:18:35.238Z,100.00
2023-05-12T02:21:02.684Z,100.00
2023-05-12T02:23:32.005Z,100.00
2023-05-12T02:25:58.767Z,100.00
2023-05-12T02:28:25.694Z,100.00
2023-05-12T02:31:05.328Z,100.00
2023-05-12T02:33:32.260Z,100.00
2023-05-12T02:35:59.316Z,100.00
2023-05-12T02:38:26.167Z,100.00
2023-05-12T02:40:55.765Z,100.00
2023-05-12T02:43:22.845Z,100.00
2023-05-12T02:45:49.845Z,100.00
2023-05-12T02:48:18.077Z,100.00
2023-05-12T02:50:48.293Z,100.00
2023-05-12T02:53:15.240Z,100.00
2023-05-12T02:55:42.710Z,100.00
2023-05-12T02:58:10.439Z,100.00
2023-05-12T03:00:37.399Z,100.00
2023-05-12T03:03:04.636Z,100.00
2023-05-12T03:05:31.803Z,100.00
2023-05-12T03:08:01.680Z,100.00
2023-05-12T03:10:28.739Z,100.00
2023-05-12T03:12:55.995Z,100.00
2023-05-12T03:15:23.239Z,100.00
2023-05-12T03:17:50.211Z,100.00
2023-05-12T03:20:19.712Z,100.00
2023-05-12T03:22:47.131Z,100.00
2023-05-12T03:25:14.812Z,100.00
2023-05-12T03:27:42.086Z,100.00
2023-05-12T03:30:10.410Z,100.00
2023-05-12T03:32:39.585Z,100.00
2023-05-12T03:35:08.002Z,100.00
2023-05-12T03:37:35.318Z,100.00
2023-05-12T03:40:02.563Z,100.00
2023-05-12T03:42:29.734Z,100.00
2023-05-12T03:44:56.682Z,100.00
2023-05-12T03:47:24.128Z,100.00
2023-05-12T03:49:51.617Z,100.00
2023-05-12T03:52:19.065Z,100.00
2023-05-12T03:54:45.920Z,100.00
2023-05-12T03:57:13.070Z,100.00
2023-05-12T03:59:40.079Z,100.00
2023-05-12T04:02:08.010Z,100.00
2023-05-12T04:04:35.410Z,100.00
2023-05-12T04:07:13.698Z,100.00
2023-05-12T04:09:40.805Z,100.00
2023-05-12T04:12:07.938Z,100.00
2023-05-12T04:14:42.795Z,100.00
2023-05-12T04:17:13.221Z,100.00
2023-05-12T04:19:40.112Z,100.00
2023-05-12T04:22:06.873Z,100.00
2023-05-12T04:24:42.495Z,100.00
2023-05-12T04:27:09.336Z,100.00
2023-05-12T04:29:36.399Z,100.00
2023-05-12T04:32:03.184Z,100.00
2023-05-12T04:34:35.840Z,100.00
2023-05-12T04:37:02.627Z,100.00
2023-05-12T04:39:34.721Z,100.00
2023-05-12T04:42:02.386Z,100.00
2023-05-12T04:44:29.211Z,100.00
2023-05-12T04:46:56.603Z,100.00
2023-05-12T04:49:23.535Z,100.00
2023-05-12T04:51:50.449Z,100.00
2023-05-12T04:54:17.324Z,100.00
2023-05-12T04:56:44.144Z,100.00
2023-05-12T04:59:18.653Z,100.00
2023-05-12T05:01:45.934Z,100.00
2023-05-12T05:04:12.804Z,100.00
2023-05-12T05:06:39.664Z,100.00
2023-05-12T05:09:06.592Z,100.00
2023-05-12T05:11:39.927Z,100.00
2023-05-12T05:14:15.791Z,100.00
2023-05-12T05:16:42.793Z,100.00
2023-05-12T05:19:20.002Z,100.00
2023-05-12T05:21:52.620Z,100.00
2023-05-12T05:24:19.756Z,100.00
2023-05-12T05:26:46.933Z,100.00
2023-05-12T05:29:13.756Z,100.00
2023-05-12T05:31:40.513Z,100.00
2023-05-12T05:34:07.419Z,100.00
2023-05-12T05:36:34.191Z,100.00
2023-05-12T05:39:01.110Z,100.00
2023-05-12T05:41:27.905Z,100.00
2023-05-12T05:43:54.671Z,100.00
2023-05-12T05:46:21.543Z,100.00
2023-05-12T05:48:48.546Z,100.00
2023-05-12T05:51:15.241Z,100.00
2023-05-12T05:53:42.152Z,100.00
2023-05-12T05:56:08.948Z,100.00
2023-05-12T05:58:35.814Z,100.00
2023-05-12T06:01:02.797Z,100.00
2023-05-12T06:03:30.099Z,100.00
2023-05-12T06:05:57.072Z,100.00
2023-05-12T06:08:23.819Z,100.00
2023-05-12T06:10:50.880Z,100.00
2023-05-12T06:13:17.662Z,100.00
2023-05-12T06:15:44.830Z,100.00
2023-05-12T06:18:12.310Z,100.00
2023-05-12T06:20:39.093Z,100.00
2023-05-12T06:23:06.920Z,100.00
2023-05-12T06:25:33.936Z,100.00
2023-05-12T06:28:00.743Z,100.00
2023-05-12T06:30:27.748Z,100.00
2023-05-12T06:32:55.085Z,100.00
2023-05-12T06:35:22.117Z,100.00
2023-05-12T06:37:51.031Z,100.00
2023-05-12T06:40:17.905Z,100.00
2023-05-12T06:42:47.147Z,100.00
2023-05-12T06:45:14.027Z,100.00
2023-05-12T06:47:40.963Z,100.00
2023-05-12T06:50:08.724Z,100.00
2023-05-12T06:52:35.768Z,100.00
2023-05-12T06:55:03.013Z,100.00
2023-05-12T06:57:29.773Z,100.00
2023-05-12T06:59:56.703Z,100.00
2023-05-12T07:02:23.559Z,100.00
2023-05-12T07:04:50.522Z,100.00
2023-05-12T07:07:17.368Z,100.00
2023-05-12T07:09:46.330Z,100.00
2023-05-12T07:12:13.182Z,100.00
2023-05-12T07:14:40.190Z,100.00
2023-05-12T07:17:07.330Z,100.00
2023-05-12T07:19:35.624Z,100.00
2023-05-12T07:22:02.400Z,100.00
2023-05-12T07:24:29.623Z,100.00
2023-05-12T07:26:56.892Z,100.00
2023-05-12T07:29:23.671Z,100.00
2023-05-12T07:31:50.622Z,100.00
2023-05-12T07:34:17.354Z,100.00
2023-05-12T07:36:44.142Z,100.00
2023-05-12T07:39:11.414Z,100.00
2023-05-12T07:41:39.783Z,100.00
2023-05-12T07:44:07.781Z,100.00
2023-05-12T07:46:37.545Z,100.00
2023-05-12T07:49:04.331Z,100.00
2023-05-12T07:51:31.237Z,100.00
2023-05-12T07:53:58.319Z,100.00
2023-05-12T07:56:25.222Z,100.00
2023-05-12T07:58:57.503Z,100.00
2023-05-12T08:01:26.779Z,100.00
2023-05-12T08:03:53.685Z,100.00
2023-05-12T08:06:20.825Z,100.00
2023-05-12T08:08:47.700Z,100.00
2023-05-12T08:11:14.523Z,100.00
2023-05-12T08:13:41.313Z,100.00
2023-05-12T08:16:17.150Z,100.00
2023-05-12T08:18:44.689Z,100.00
2023-05-12T08:21:11.526Z,100.00
2023-05-12T08:23:38.334Z,100.00
2023-05-12T08:26:05.249Z,100.00
2023-05-12T08:28:32.348Z,100.00
2023-05-12T08:31:02.656Z,100.00
2023-05-12T08:33:31.092Z,100.00
2023-05-12T08:35:58.031Z,100.00
2023-05-12T08:38:24.794Z,100.00
2023-05-12T08:41:13.010Z,100.00
2023-05-12T08:43:51.823Z,100.00
2023-05-12T08:46:19.131Z,100.00
2023-05-12T08:48:47.630Z,100.00
2023-05-12T08:51:14.848Z,100.00
2023-05-12T08:53:42.779Z,100.00
2023-05-12T08:58:42.957Z,100.00
2023-05-12T09:01:11.986Z,100.00
2023-05-12T09:03:39.316Z,100.00
2023-05-12T09:06:11.445Z,100.00
2023-05-12T09:08:39.367Z,100.00
2023-05-12T09:11:08.843Z,100.00
2023-05-12T09:13:38.519Z,100.00
2023-05-12T09:16:11.678Z,100.00
2023-05-12T09:18:56.722Z,100.00
2023-05-12T09:21:27.338Z,100.00
2023-05-12T09:24:07.261Z,100.00
2023-05-12T09:26:46.668Z,100.00
2023-05-12T09:29:23.916Z,100.00
2023-05-12T09:31:58.591Z,100.00
2023-05-12T09:34:44.535Z,99.98
2023-05-12T09:37:13.240Z,98.16
2023-05-12T09:39:41.375Z,93.78
2023-05-12T09:42:12.789Z,94.79
2023-05-12T09:44:41.054Z,94.79
2023-05-12T09:47:08.393Z,94.29
2023-05-12T09:49:37.555Z,93.22
2023-05-12T09:52:05.287Z,91.79
2023-05-12T09:54:36.884Z,89.55
2023-05-12T09:57:10.687Z,89.01
2023-05-12T09:59:38.973Z,89.02
2023-05-12T10:02:09.408Z,90.21
2023-05-12T10:04:56.310Z,87.30
2023-05-12T10:07:27.657Z,87.63
2023-05-12T10:12:39.820Z,88.16
2023-05-12T10:15:09.863Z,81.98
2023-05-12T10:17:43.942Z,83.05
2023-05-12T10:20:13.625Z,80.83
2023-05-12T10:22:41.226Z,81.78
2023-05-12T10:25:09.172Z,78.93
2023-05-12T10:30:18.175Z,77.11
2023-05-12T10:32:45.165Z,75.36
2023-05-12T10:35:16.077Z,71.96
2023-05-12T10:37:43.752Z,73.02
2023-05-12T10:40:11.335Z,71.50
2023-05-12T10:42:46.855Z,72.34
2023-05-12T10:45:20.677Z,74.32
2023-05-12T10:47:47.842Z,76.32
2023-05-12T10:50:14.870Z,74.79
2023-05-12T10:52:54.010Z,74.76
2023-05-12T10:55:42.264Z,76.83
2023-05-12T10:58:14.726Z,74.43
2023-05-12T11:00:51.814Z,74.59
2023-05-12T11:03:25.807Z,74.15
2023-05-12T11:06:05.188Z,72.55
2023-05-12T11:08:35.901Z,74.10
2023-05-12T11:11:03.322Z,72.57
2023-05-12T11:13:30.373Z,70.89
2023-05-12T11:16:00.990Z,72.36
2023-05-12T11:18:27.833Z,72.42
2023-05-12T11:20:54.853Z,74.12
2023-05-12T11:23:32.436Z,74.66
2023-05-12T11:26:01.870Z,76.24
2023-05-12T11:28:28.584Z,77.74
2023-05-12T11:30:55.849Z,78.69
2023-05-12T11:33:29.225Z,79.69
2023-05-12T11:35:56.015Z,77.05
2023-05-12T11:38:24.605Z,78.53
2023-05-12T11:40:51.552Z,78.07
2023-05-12T11:43:23.646Z,79.45
2023-05-12T11:45:50.695Z,80.07
2023-05-12T11:48:17.772Z,83.29
2023-05-12T11:50:48.848Z,82.54
2023-05-12T11:53:19.606Z,84.13
2023-05-12T11:55:54.708Z,86.14
2023-05-12T11:58:27.051Z,87.96
2023-05-12T12:03:47.675Z,87.89
2023-05-12T12:06:14.959Z,87.56
2023-05-12T12:09:12.432Z,84.70
2023-05-12T12:11:39.244Z,85.29
2023-05-12T12:14:09.076Z,82.65
2023-05-12T12:16:35.843Z,82.12
2023-05-12T12:19:02.737Z,82.68
2023-05-12T12:21:29.563Z,81.95
2023-05-12T12:24:05.053Z,80.10
2023-05-12T12:26:32.062Z,80.93
2023-05-12T12:28:58.765Z,84.50
2023-05-12T12:31:25.562Z,84.29
2023-05-12T12:33:52.530Z,83.13
2023-05-12T12:36:19.510Z,78.49
2023-05-12T12:38:46.358Z,78.95
2023-05-12T12:41:13.496Z,80.13
2023-05-12T12:43:40.258Z,76.60
2023-05-12T12:46:07.358Z,78.08
2023-05-12T12:48:34.330Z,77.61
2023-05-12T12:51:01.565Z,77.70
2023-05-12T12:53:28.305Z,76.73
2023-05-12T12:56:06.956Z,74.44
2023-05-12T12:58:33.659Z,70.05
2023-05-12T13:01:00.543Z,68.96
2023-05-12T13:03:27.372Z,64.68
2023-05-12T13:05:54.362Z,61.29
2023-05-12T13:08:21.349Z,60.27
2023-05-12T13:10:48.144Z,60.17
2023-05-12T13:13:15.032Z,60.55
2023-05-12T13:15:44.025Z,61.35
2023-05-12T13:18:12.492Z,61.32
2023-05-12T13:20:48.941Z,61.53
2023-05-12T13:23:15.754Z,63.71
2023-05-12T13:25:44.986Z,64.48
2023-05-12T13:28:11.838Z,63.66
2023-05-12T13:30:38.687Z,66.81
2023-05-12T13:33:06.326Z,67.54
2023-05-12T13:35:36.443Z,69.86
2023-05-12T13:38:03.304Z,69.26
2023-05-12T13:40:30.355Z,69.60
2023-05-12T13:42:57.054Z,68.44
2023-05-12T13:45:24.205Z,67.02
2023-05-12T13:47:51.146Z,68.75
2023-05-12T13:50:18.173Z,66.79
2023-05-12T13:52:49.593Z,65.76
2023-05-12T13:55:21.037Z,65.45
2023-05-12T13:57:49.067Z,64.15
2023-05-12T14:00:17.426Z,62.76
2023-05-12T14:02:44.705Z,62.57
2023-05-12T14:05:12.119Z,62.94
2023-05-12T14:07:39.009Z,61.54
2023-05-12T14:10:06.512Z,60.50
2023-05-12T14:12:33.479Z,61.89
2023-05-12T14:15:15.804Z,62.82
2023-05-12T14:17:48.481Z,61.28
2023-05-12T14:20:15.564Z,61.80
2023-05-12T14:22:42.781Z,61.84
2023-05-12T14:25:09.681Z,61.48
2023-05-12T14:27:36.540Z,60.21
2023-05-12T14:30:04.038Z,62.50
2023-05-12T14:32:33.475Z,63.39
2023-05-12T14:35:01.010Z,63.02
2023-05-12T14:37:27.865Z,64.44
2023-05-12T14:39:56.792Z,65.01
2023-05-12T14:42:23.911Z,64.23
2023-05-12T14:44:50.653Z,64.10
2023-05-12T14:47:21.689Z,64.65
2023-05-12T14:52:31.300Z,67.13
2023-05-12T14:54:58.367Z,65.88
2023-05-12T14:57:25.203Z,64.35
2023-05-12T14:59:56.411Z,64.76
2023-05-12T15:02:23.284Z,66.05
2023-05-12T15:04:50.101Z,65.90
2023-05-12T15:07:16.803Z,65.70
2023-05-12T15:09:43.730Z,64.36
2023-05-12T15:12:10.602Z,62.60
2023-05-12T15:14:37.635Z,62.89
2023-05-12T15:17:07.572Z,63.32
2023-05-12T15:19:34.562Z,64.25
2023-05-12T15:22:01.266Z,65.27
2023-05-12T15:24:28.820Z,65.29
2023-05-12T15:26:55.835Z,65.83
2023-05-12T15:29:26.423Z,67.46
2023-05-12T15:32:03.470Z,69.08
2023-05-12T15:34:39.329Z,69.21
2023-05-12T15:37:06.702Z,69.80
2023-05-12T15:39:33.507Z,70.66
2023-05-12T15:42:01.120Z,70.61
2023-05-12T15:44:28.068Z,69.54
2023-05-12T15:46:55.102Z,71.05
2023-05-12T15:49:29.463Z,71.02
2023-05-12T15:52:04.396Z,71.03
2023-05-12T15:55:07.279Z,72.52
2023-05-12T15:57:36.533Z,73.19
2023-05-12T16:00:04.174Z,73.15
2023-05-12T16:02:31.278Z,72.52
2023-05-12T16:04:58.360Z,71.92
2023-05-12T16:07:37.660Z,73.05
2023-05-12T16:10:05.500Z,71.76
2023-05-12T16:12:32.393Z,72.24
2023-05-12T16:14:59.559Z,72.95
2023-05-12T16:17:27.936Z,73.41
2023-05-12T16:19:57.154Z,74.22
2023-05-12T16:22:26.976Z,74.31
2023-05-12T16:24:57.747Z,74.31
2023-05-12T16:27:24.668Z,74.39
2023-05-12T16:29:53.561Z,74.05
2023-05-12T16:32:21.949Z,75.30
2023-05-12T16:34:50.077Z,74.77
2023-05-12T16:37:16.861Z,75.01
2023-05-12T16:39:43.557Z,75.32
2023-05-12T16:42:10.748Z,76.29
2023-05-12T16:44:37.451Z,76.38
2023-05-12T16:47:05.620Z,77.50
2023-05-12T16:49:32.280Z,78.16
2023-05-12T16:52:05.313Z,78.85
2023-05-12T16:54:32.862Z,79.64
2023-05-12T16:57:01.893Z,80.47
2023-05-12T16:59:28.863Z,82.03
2023-05-12T17:01:55.808Z,82.67
2023-05-12T17:04:22.503Z,84.06
2023-05-12T17:06:50.224Z,84.60
2023-05-12T17:09:20.732Z,83.77
2023-05-12T17:11:47.632Z,85.70
2023-05-12T17:14:18.974Z,86.15
2023-05-12T17:16:51.717Z,86.85
2023-05-12T17:19:18.874Z,88.20
2023-05-12T17:21:45.693Z,90.76
2023-05-12T17:24:12.533Z,91.89
2023-05-12T17:26:39.330Z,91.61
2023-05-12T17:29:09.263Z,91.09
2023-05-12T17:31:37.262Z,92.04
2023-05-12T17:34:05.154Z,92.91
2023-05-12T17:36:31.996Z,92.58
2023-05-12T17:38:58.938Z,92.79
2023-05-12T17:41:28.377Z,92.78
2023-05-12T17:43:55.955Z,93.24
2023-05-12T17:46:27.896Z,92.61
2023-05-12T17:48:54.726Z,93.18
2023-05-12T17:51:22.014Z,92.68
2023-05-12T17:53:54.781Z,92.60
2023-05-12T17:56:21.632Z,92.42
2023-05-12T17:58:49.522Z,92.08
2023-05-12T18:04:07.962Z,94.59
2023-05-12T18:06:35.054Z,95.05
2023-05-12T18:09:02.748Z,95.30
2023-05-12T18:11:29.844Z,95.15
2023-05-12T18:13:56.950Z,95.08
2023-05-12T18:16:29.031Z,96.34
2023-05-12T18:18:56.828Z,94.77
2023-05-12T18:21:24.345Z,94.45
2023-05-12T18:23:51.402Z,94.87
2023-05-12T18:26:21.646Z,94.98
2023-05-12T18:28:51.956Z,97.46
2023-05-12T18:31:20.304Z,97.75
2023-05-12T18:33:50.588Z,96.86
2023-05-12T18:36:17.669Z,97.70
2023-05-12T18:38:44.827Z,96.80
2023-05-12T18:41:12.577Z,96.94
2023-05-12T18:43:39.293Z,97.72
2023-05-12T18:46:06.320Z,100.00
2023-05-12T18:48:33.273Z,100.00
2023-05-12T18:51:01.547Z,100.00
2023-05-12T18:53:28.352Z,100.00
2023-05-12T18:55:55.187Z,100.00
2023-05-12T18:58:22.560Z,100.00
2023-05-12T19:00:49.498Z,100.00
2023-05-12T19:03:16.509Z,100.00
2023-05-12T19:05:45.516Z,100.00
2023-05-12T19:08:12.907Z,100.00
2023-05-12T19:10:40.302Z,100.00
2023-05-12T19:13:07.435Z,100.00
2023-05-12T19:15:34.422Z,100.00
2023-05-12T19:18:01.929Z,100.00
2023-05-12T19:20:29.326Z,100.00
2023-05-12T19:22:56.303Z,100.00
2023-05-12T19:25:23.983Z,100.00
2023-05-12T19:27:51.101Z,100.00
2023-05-12T19:30:20.898Z,100.00
2023-05-12T19:32:48.305Z,100.00
2023-05-12T19:35:15.887Z,100.00
2023-05-12T19:37:49.380Z,100.00
2023-05-12T19:40:16.121Z,100.00
2023-05-12T19:42:43.327Z,100.00
2023-05-12T19:45:11.304Z,100.00
2023-05-12T19:47:40.955Z,100.00
2023-05-12T19:50:14.972Z,100.00
2023-05-12T19:52:46.466Z,100.00
2023-05-12T19:55:13.497Z,100.00
2023-05-12T19:58:06.680Z,100.00
2023-05-12T20:00:33.620Z,100.00
2023-05-12T20:03:03.416Z,100.00
2023-05-12T20:05:30.724Z,100.00
2023-05-12T20:07:57.985Z,100.00
2023-05-12T20:11:28.060Z,100.00
2023-05-12T20:13:44.257Z,100.00
2023-05-12T20:16:17.456Z,100.00
2023-05-12T20:18:49.262Z,100.00
2023-05-12T20:21:28.007Z,100.00
2023-05-12T20:23:57.923Z,100.00
2023-05-12T20:26:27.186Z,100.00
2023-05-12T20:28:57.881Z,100.00
2023-05-12T20:31:35.195Z,100.00
2023-05-12T20:34:02.443Z,100.00
2023-05-12T20:36:29.495Z,100.00
2023-05-12T20:39:07.939Z,100.00
2023-05-12T20:42:07.082Z,100.00
2023-05-12T20:48:15.336Z,100.00
2023-05-12T20:51:25.031Z,100.00
2023-05-12T20:57:33.027Z,100.00
2023-05-12T21:01:35.916Z,100.00
2023-05-12T21:03:40.478Z,100.00
2023-05-12T21:06:07.536Z,100.00
2023-05-12T21:08:34.431Z,100.00
2023-05-12T21:11:01.318Z,100.00
2023-05-12T21:13:28.132Z,100.00
2023-05-12T21:15:55.088Z,100.00
2023-05-12T21:18:21.941Z,100.00
2023-05-12T21:20:48.913Z,100.00
2023-05-12T21:23:15.872Z,100.00
2023-05-12T21:25:42.728Z,100.00
2023-05-12T21:28:09.669Z,100.00
2023-05-12T21:30:37.436Z,100.00
2023-05-12T21:33:05.311Z,100.00
2023-05-12T21:35:32.333Z,100.00
2023-05-12T21:37:59.246Z,100.00
2023-05-12T21:40:26.356Z,100.00
2023-05-12T21:42:53.293Z,100.00
2023-05-12T21:45:21.684Z,100.00
2023-05-12T21:47:51.370Z,100.00
2023-05-12T21:50:18.556Z,100.00
2023-05-12T21:52:45.387Z,100.00
2023-05-12T21:55:12.856Z,100.00
2023-05-12T21:57:39.727Z,100.00
2023-05-12T22:00:09.873Z,100.00
2023-05-12T22:02:36.970Z,100.00
2023-05-12T22:05:04.746Z,100.00
2023-05-12T22:07:31.808Z,100.00
2023-05-12T22:09:58.663Z,100.00
2023-05-12T22:12:25.390Z,100.00
2023-05-12T22:14:52.343Z,100.00
2023-05-12T22:17:19.234Z,100.00
2023-05-12T22:22:27.242Z,100.00
2023-05-12T22:24:54.318Z,100.00
2023-05-12T22:27:22.273Z,100.00
2023-05-12T22:29:49.991Z,100.00
2023-05-12T22:32:16.826Z,100.00
2023-05-12T22:34:43.661Z,100.00
2023-05-12T22:37:10.844Z,100.00
2023-05-12T22:39:37.710Z,100.00
2023-05-12T22:42:04.883Z,100.00
2023-05-12T22:44:32.165Z,100.00
2023-05-12T22:46:59.171Z,100.00
2023-05-12T22:49:26.347Z,100.00
2023-05-12T22:51:53.460Z,100.00
2023-05-12T22:54:20.421Z,100.00
2023-05-12T22:56:47.579Z,100.00
2023-05-12T22:59:14.498Z,100.00
2023-05-12T23:01:41.402Z,100.00
2023-05-12T23:04:08.844Z,100.00
2023-05-12T23:06:39.856Z,100.00
2023-05-12T23:09:06.988Z,100.00
2023-05-12T23:11:34.026Z,100.00
2023-05-12T23:14:01.010Z,100.00
2023-05-12T23:16:28.554Z,100.00
2023-05-12T23:18:55.684Z,100.00
2023-05-12T23:21:22.525Z,100.00
2023-05-12T23:23:49.445Z,100.00
2023-05-12T23:26:16.464Z,100.00
2023-05-12T23:28:43.246Z,100.00
2023-05-12T23:31:10.456Z,100.00
2023-05-12T23:33:37.649Z,100.00
2023-05-12T23:36:04.780Z,100.00
2023-05-12T23:38:31.675Z,100.00
2023-05-12T23:40:58.600Z,100.00
2023-05-12T23:43:25.625Z,100.00
2023-05-12T23:45:52.630Z,100.00
2023-05-12T23:48:19.611Z,100.00
2023-05-12T23:50:49.430Z,100.00
2023-05-12T23:53:16.478Z,100.00
2023-05-12T23:55:44.968Z,100.00
2023-05-12T23:58:13.595Z,100.00
